sensor_id;sensor_type;location;lat;lon;timestamp;P1;durP1;ratioP1;P2;durP2;ratioP2
80576;SDS011;69937;52.420;10.538;2024-02-21T00:01:39;11.07;;;6.45;;
80576;SDS011;69937;52.420;10.538;2024-02-21T00:06:40;16.20;;;6.65;;
80576;SDS011;69937;52.420;10.538;2024-02-21T00:11:40;13.27;;;6.05;;
80576;SDS011;69937;52.420;10.538;2024-02-21T00:16:41;10.73;;;6.75;;
80576;SDS011;69937;52.420;10.538;2024-02-21T00:21:41;15.07;;;8.50;;
80576;SDS011;69937;52.420;10.538;2024-02-21T00:26:42;13.70;;;8.10;;
80576;SDS011;69937;52.420;10.538;2024-02-21T00:31:42;10.27;;;6.80;;
80576;SDS011;69937;52.420;10.538;2024-02-21T00:36:44;21.40;;;7.32;;
80576;SDS011;69937;52.420;10.538;2024-02-21T00:41:45;10.50;;;7.03;;
80576;SDS011;69937;52.420;10.538;2024-02-21T00:46:45;10.15;;;7.10;;
80576;SDS011;69937;52.420;10.538;2024-02-21T00:51:47;16.55;;;7.90;;
80576;SDS011;69937;52.420;10.538;2024-02-21T00:56:47;17.50;;;6.65;;
80576;SDS011;69937;52.420;10.538;2024-02-21T01:01:48;14.30;;;8.13;;
80576;SDS011;69937;52.420;10.538;2024-02-21T01:06:49;16.73;;;9.48;;
80576;SDS011;69937;52.420;10.538;2024-02-21T01:11:49;9.57;;;7.57;;
80576;SDS011;69937;52.420;10.538;2024-02-21T01:16:49;18.00;;;8.55;;
80576;SDS011;69937;52.420;10.538;2024-02-21T01:21:50;16.73;;;8.50;;
80576;SDS011;69937;52.420;10.538;2024-02-21T01:26:51;19.48;;;7.78;;
80576;SDS011;69937;52.420;10.538;2024-02-21T01:31:51;15.90;;;7.82;;
80576;SDS011;69937;52.420;10.538;2024-02-21T01:36:51;18.65;;;10.48;;
80576;SDS011;69937;52.420;10.538;2024-02-21T01:41:52;16.52;;;7.93;;
80576;SDS011;69937;52.420;10.538;2024-02-21T01:46:53;20.02;;;7.75;;
80576;SDS011;69937;52.420;10.538;2024-02-21T01:51:53;20.45;;;7.97;;
80576;SDS011;69937;52.420;10.538;2024-02-21T01:56:55;17.55;;;7.88;;
80576;SDS011;69937;52.420;10.538;2024-02-21T02:01:56;16.35;;;8.68;;
80576;SDS011;69937;52.420;10.538;2024-02-21T02:06:57;16.73;;;7.53;;
80576;SDS011;69937;52.420;10.538;2024-02-21T02:12:02;20.33;;;8.07;;
80576;SDS011;69937;52.420;10.538;2024-02-21T02:17:03;20.63;;;9.95;;
80576;SDS011;69937;52.420;10.538;2024-02-21T02:22:08;21.00;;;8.18;;
80576;SDS011;69937;52.420;10.538;2024-02-21T02:27:13;21.95;;;9.07;;
80576;SDS011;69937;52.420;10.538;2024-02-21T02:32:13;19.33;;;7.95;;
80576;SDS011;69937;52.420;10.538;2024-02-21T02:37:14;17.50;;;10.23;;
80576;SDS011;69937;52.420;10.538;2024-02-21T02:42:14;16.63;;;8.32;;
80576;SDS011;69937;52.420;10.538;2024-02-21T02:47:15;14.02;;;9.00;;
80576;SDS011;69937;52.420;10.538;2024-02-21T02:52:15;18.88;;;8.57;;
80576;SDS011;69937;52.420;10.538;2024-02-21T02:57:16;14.32;;;7.85;;
80576;SDS011;69937;52.420;10.538;2024-02-21T03:02:17;16.90;;;9.55;;
80576;SDS011;69937;52.420;10.538;2024-02-21T03:07:17;13.32;;;6.70;;
80576;SDS011;69937;52.420;10.538;2024-02-21T03:12:18;12.07;;;7.43;;
80576;SDS011;69937;52.420;10.538;2024-02-21T03:17:24;17.38;;;8.30;;
80576;SDS011;69937;52.420;10.538;2024-02-21T03:22:27;20.42;;;9.05;;
80576;SDS011;69937;52.420;10.538;2024-02-21T03:27:27;15.48;;;8.90;;
80576;SDS011;69937;52.420;10.538;2024-02-21T03:32:28;14.18;;;8.02;;
80576;SDS011;69937;52.420;10.538;2024-02-21T03:37:29;13.65;;;8.68;;
80576;SDS011;69937;52.420;10.538;2024-02-21T03:42:29;20.42;;;9.02;;
80576;SDS011;69937;52.420;10.538;2024-02-21T03:47:31;14.43;;;9.15;;
80576;SDS011;69937;52.420;10.538;2024-02-21T03:52:32;17.10;;;9.20;;
80576;SDS011;69937;52.420;10.538;2024-02-21T03:57:32;15.52;;;10.80;;
80576;SDS011;69937;52.420;10.538;2024-02-21T04:02:33;17.83;;;9.75;;
80576;SDS011;69937;52.420;10.538;2024-02-21T04:07:33;19.45;;;9.85;;
80576;SDS011;69937;52.420;10.538;2024-02-21T04:12:34;17.17;;;8.88;;
80576;SDS011;69937;52.420;10.538;2024-02-21T04:17:34;21.90;;;9.00;;
80576;SDS011;69937;52.420;10.538;2024-02-21T04:22:35;19.98;;;9.65;;
80576;SDS011;69937;52.420;10.538;2024-02-21T04:27:37;17.67;;;10.35;;
80576;SDS011;69937;52.420;10.538;2024-02-21T04:32:38;11.23;;;6.95;;
80576;SDS011;69937;52.420;10.538;2024-02-21T04:37:39;18.92;;;8.52;;
80576;SDS011;69937;52.420;10.538;2024-02-21T04:42:40;14.50;;;9.13;;
80576;SDS011;69937;52.420;10.538;2024-02-21T04:47:42;14.10;;;7.55;;
80576;SDS011;69937;52.420;10.538;2024-02-21T04:52:43;22.42;;;11.00;;
80576;SDS011;69937;52.420;10.538;2024-02-21T04:57:43;18.40;;;8.43;;
80576;SDS011;69937;52.420;10.538;2024-02-21T05:02:44;14.13;;;10.25;;
80576;SDS011;69937;52.420;10.538;2024-02-21T05:07:44;14.93;;;8.10;;
80576;SDS011;69937;52.420;10.538;2024-02-21T05:12:45;18.23;;;8.48;;
80576;SDS011;69937;52.420;10.538;2024-02-21T05:17:45;14.70;;;8.32;;
80576;SDS011;69937;52.420;10.538;2024-02-21T05:22:46;17.88;;;8.60;;
80576;SDS011;69937;52.420;10.538;2024-02-21T05:27:46;18.55;;;9.38;;
80576;SDS011;69937;52.420;10.538;2024-02-21T05:32:48;13.88;;;7.40;;
80576;SDS011;69937;52.420;10.538;2024-02-21T05:37:48;21.30;;;8.02;;
80576;SDS011;69937;52.420;10.538;2024-02-21T05:42:52;16.48;;;9.90;;
80576;SDS011;69937;52.420;10.538;2024-02-21T05:47:53;21.85;;;9.60;;
80576;SDS011;69937;52.420;10.538;2024-02-21T05:52:56;20.42;;;8.65;;
80576;SDS011;69937;52.420;10.538;2024-02-21T05:57:57;23.85;;;10.93;;
80576;SDS011;69937;52.420;10.538;2024-02-21T06:02:57;18.20;;;9.88;;
80576;SDS011;69937;52.420;10.538;2024-02-21T06:07:58;20.52;;;12.00;;
80576;SDS011;69937;52.420;10.538;2024-02-21T06:12:59;20.75;;;9.63;;
80576;SDS011;69937;52.420;10.538;2024-02-21T06:18:00;19.10;;;9.32;;
80576;SDS011;69937;52.420;10.538;2024-02-21T06:23:00;13.73;;;8.23;;
80576;SDS011;69937;52.420;10.538;2024-02-21T06:28:01;17.85;;;8.93;;
80576;SDS011;69937;52.420;10.538;2024-02-21T06:33:01;14.90;;;7.97;;
80576;SDS011;69937;52.420;10.538;2024-02-21T06:38:02;21.30;;;8.60;;
80576;SDS011;69937;52.420;10.538;2024-02-21T06:43:03;18.73;;;9.55;;
80576;SDS011;69937;52.420;10.538;2024-02-21T06:48:04;16.35;;;9.35;;
80576;SDS011;69937;52.420;10.538;2024-02-21T06:53:04;18.58;;;9.63;;
80576;SDS011;69937;52.420;10.538;2024-02-21T06:58:05;20.48;;;8.68;;
80576;SDS011;69937;52.420;10.538;2024-02-21T07:03:08;15.32;;;8.25;;
80576;SDS011;69937;52.420;10.538;2024-02-21T07:08:09;22.13;;;9.68;;
80576;SDS011;69937;52.420;10.538;2024-02-21T07:13:09;13.85;;;8.18;;
80576;SDS011;69937;52.420;10.538;2024-02-21T07:18:10;15.00;;;8.88;;
80576;SDS011;69937;52.420;10.538;2024-02-21T07:23:10;14.25;;;8.63;;
80576;SDS011;69937;52.420;10.538;2024-02-21T07:28:11;14.95;;;7.72;;
80576;SDS011;69937;52.420;10.538;2024-02-21T07:33:13;14.35;;;8.85;;
80576;SDS011;69937;52.420;10.538;2024-02-21T07:38:13;15.45;;;8.50;;
80576;SDS011;69937;52.420;10.538;2024-02-21T07:43:14;13.68;;;6.50;;
80576;SDS011;69937;52.420;10.538;2024-02-21T07:48:14;15.43;;;8.02;;
80576;SDS011;69937;52.420;10.538;2024-02-21T07:53:15;13.07;;;8.23;;
80576;SDS011;69937;52.420;10.538;2024-02-21T07:58:15;16.92;;;7.55;;
80576;SDS011;69937;52.420;10.538;2024-02-21T08:03:16;12.45;;;7.28;;
80576;SDS011;69937;52.420;10.538;2024-02-21T08:08:17;20.67;;;9.30;;
80576;SDS011;69937;52.420;10.538;2024-02-21T08:13:19;11.35;;;6.75;;
80576;SDS011;69937;52.420;10.538;2024-02-21T08:18:21;13.05;;;8.55;;
80576;SDS011;69937;52.420;10.538;2024-02-21T08:23:23;10.65;;;7.75;;
80576;SDS011;69937;52.420;10.538;2024-02-21T08:28:24;10.25;;;6.53;;
80576;SDS011;69937;52.420;10.538;2024-02-21T08:33:25;9.63;;;6.90;;
80576;SDS011;69937;52.420;10.538;2024-02-21T08:38:25;10.10;;;6.20;;
80576;SDS011;69937;52.420;10.538;2024-02-21T08:43:26;12.90;;;6.85;;
80576;SDS011;69937;52.420;10.538;2024-02-21T08:48:26;13.57;;;7.47;;
80576;SDS011;69937;52.420;10.538;2024-02-21T08:53:27;10.90;;;7.43;;
80576;SDS011;69937;52.420;10.538;2024-02-21T08:58:28;14.77;;;6.22;;
80576;SDS011;69937;52.420;10.538;2024-02-21T09:03:32;13.93;;;6.80;;
80576;SDS011;69937;52.420;10.538;2024-02-21T09:08:33;16.02;;;7.50;;
80576;SDS011;69937;52.420;10.538;2024-02-21T09:13:34;21.15;;;8.68;;
80576;SDS011;69937;52.420;10.538;2024-02-21T09:18:34;9.65;;;6.25;;
80576;SDS011;69937;52.420;10.538;2024-02-21T09:23:35;13.60;;;6.18;;
80576;SDS011;69937;52.420;10.538;2024-02-21T09:28:35;9.77;;;6.00;;
80576;SDS011;69937;52.420;10.538;2024-02-21T09:33:36;17.48;;;7.32;;
80576;SDS011;69937;52.420;10.538;2024-02-21T09:38:39;14.77;;;6.03;;
80576;SDS011;69937;52.420;10.538;2024-02-21T09:43:40;10.07;;;6.75;;
80576;SDS011;69937;52.420;10.538;2024-02-21T09:54:01;11.48;;;6.20;;
80576;SDS011;69937;52.420;10.538;2024-02-21T09:59:03;12.48;;;5.45;;
80576;SDS011;69937;52.420;10.538;2024-02-21T10:04:04;6.72;;;4.57;;
80576;SDS011;69937;52.420;10.538;2024-02-21T10:09:05;8.20;;;4.72;;
80576;SDS011;69937;52.420;10.538;2024-02-21T10:14:06;8.75;;;4.35;;
80576;SDS011;69937;52.420;10.538;2024-02-21T10:19:15;7.25;;;3.95;;
80576;SDS011;69937;52.420;10.538;2024-02-21T10:24:25;9.02;;;4.30;;
80576;SDS011;69937;52.420;10.538;2024-02-21T10:29:26;6.53;;;3.53;;
80576;SDS011;69937;52.420;10.538;2024-02-21T10:34:27;7.30;;;3.15;;
80576;SDS011;69937;52.420;10.538;2024-02-21T10:39:28;5.50;;;3.75;;
80576;SDS011;69937;52.420;10.538;2024-02-21T10:44:28;7.20;;;3.28;;
80576;SDS011;69937;52.420;10.538;2024-02-21T10:49:33;4.38;;;3.58;;
80576;SDS011;69937;52.420;10.538;2024-02-21T10:54:42;5.82;;;3.28;;
80576;SDS011;69937;52.420;10.538;2024-02-21T10:59:45;8.85;;;3.38;;
80576;SDS011;69937;52.420;10.538;2024-02-21T11:04:47;6.50;;;3.25;;
80576;SDS011;69937;52.420;10.538;2024-02-21T11:09:52;5.95;;;2.80;;
80576;SDS011;69937;52.420;10.538;2024-02-21T11:15:05;10.57;;;3.65;;
80576;SDS011;69937;52.420;10.538;2024-02-21T11:20:12;8.32;;;3.72;;
80576;SDS011;69937;52.420;10.538;2024-02-21T11:25:20;4.57;;;3.25;;
80576;SDS011;69937;52.420;10.538;2024-02-21T11:30:26;6.78;;;2.85;;
80576;SDS011;69937;52.420;10.538;2024-02-21T11:35:30;5.15;;;2.75;;
80576;SDS011;69937;52.420;10.538;2024-02-21T11:40:35;7.15;;;4.15;;
80576;SDS011;69937;52.420;10.538;2024-02-21T11:45:38;7.82;;;2.90;;
80576;SDS011;69937;52.420;10.538;2024-02-21T11:50:39;6.95;;;2.30;;
80576;SDS011;69937;52.420;10.538;2024-02-21T11:55:40;5.78;;;2.67;;
80576;SDS011;69937;52.420;10.538;2024-02-21T12:00:40;5.32;;;2.53;;
80576;SDS011;69937;52.420;10.538;2024-02-21T12:05:41;5.05;;;2.75;;
80576;SDS011;69937;52.420;10.538;2024-02-21T12:10:42;6.22;;;2.15;;
80576;SDS011;69937;52.420;10.538;2024-02-21T12:15:47;5.68;;;1.98;;
80576;SDS011;69937;52.420;10.538;2024-02-21T12:20:49;3.80;;;2.05;;
80576;SDS011;69937;52.420;10.538;2024-02-21T12:25:50;6.00;;;2.75;;
80576;SDS011;69937;52.420;10.538;2024-02-21T12:30:54;5.10;;;2.75;;
80576;SDS011;69937;52.420;10.538;2024-02-21T12:35:54;5.35;;;2.90;;
80576;SDS011;69937;52.420;10.538;2024-02-21T12:40:55;3.33;;;2.40;;
80576;SDS011;69937;52.420;10.538;2024-02-21T12:45:57;7.18;;;2.80;;
80576;SDS011;69937;52.420;10.538;2024-02-21T12:50:57;3.33;;;3.00;;
80576;SDS011;69937;52.420;10.538;2024-02-21T12:55:58;6.43;;;2.33;;
80576;SDS011;69937;52.420;10.538;2024-02-21T13:00:59;7.25;;;2.83;;
80576;SDS011;69937;52.420;10.538;2024-02-21T13:06:00;7.35;;;2.95;;
80576;SDS011;69937;52.420;10.538;2024-02-21T13:11:00;5.32;;;2.65;;
80576;SDS011;69937;52.420;10.538;2024-02-21T13:16:01;4.97;;;2.80;;
80576;SDS011;69937;52.420;10.538;2024-02-21T13:21:02;7.88;;;3.25;;
80576;SDS011;69937;52.420;10.538;2024-02-21T13:26:02;9.10;;;4.55;;
80576;SDS011;69937;52.420;10.538;2024-02-21T13:31:03;5.85;;;3.15;;
80576;SDS011;69937;52.420;10.538;2024-02-21T13:36:04;7.28;;;4.00;;
80576;SDS011;69937;52.420;10.538;2024-02-21T13:41:05;8.68;;;4.70;;
80576;SDS011;69937;52.420;10.538;2024-02-21T13:46:06;9.73;;;5.75;;
80576;SDS011;69937;52.420;10.538;2024-02-21T13:51:09;9.88;;;4.90;;
80576;SDS011;69937;52.420;10.538;2024-02-21T13:56:11;7.03;;;3.90;;
80576;SDS011;69937;52.420;10.538;2024-02-21T14:01:12;11.13;;;5.32;;
80576;SDS011;69937;52.420;10.538;2024-02-21T14:06:12;7.80;;;5.45;;
80576;SDS011;69937;52.420;10.538;2024-02-21T14:11:13;10.23;;;4.90;;
80576;SDS011;69937;52.420;10.538;2024-02-21T14:16:14;12.27;;;5.78;;
80576;SDS011;69937;52.420;10.538;2024-02-21T14:21:15;12.30;;;5.53;;
80576;SDS011;69937;52.420;10.538;2024-02-21T14:26:15;7.85;;;4.60;;
80576;SDS011;69937;52.420;10.538;2024-02-21T14:31:16;13.40;;;5.90;;
80576;SDS011;69937;52.420;10.538;2024-02-21T14:36:17;13.45;;;5.57;;
80576;SDS011;69937;52.420;10.538;2024-02-21T14:41:18;6.75;;;4.38;;
80576;SDS011;69937;52.420;10.538;2024-02-21T14:46:18;7.28;;;4.85;;
80576;SDS011;69937;52.420;10.538;2024-02-21T14:51:19;9.02;;;4.65;;
80576;SDS011;69937;52.420;10.538;2024-02-21T14:56:19;12.70;;;7.43;;
80576;SDS011;69937;52.420;10.538;2024-02-21T15:01:20;5.63;;;3.00;;
80576;SDS011;69937;52.420;10.538;2024-02-21T15:06:21;5.53;;;2.97;;
80576;SDS011;69937;52.420;10.538;2024-02-21T15:11:21;5.32;;;2.88;;
80576;SDS011;69937;52.420;10.538;2024-02-21T15:16:22;10.90;;;3.22;;
80576;SDS011;69937;52.420;10.538;2024-02-21T15:21:23;8.18;;;2.75;;
80576;SDS011;69937;52.420;10.538;2024-02-21T15:26:23;9.73;;;2.90;;
80576;SDS011;69937;52.420;10.538;2024-02-21T15:31:24;4.88;;;2.78;;
80576;SDS011;69937;52.420;10.538;2024-02-21T15:36:24;4.57;;;2.95;;
80576;SDS011;69937;52.420;10.538;2024-02-21T15:41:25;3.88;;;1.90;;
80576;SDS011;69937;52.420;10.538;2024-02-21T15:46:26;5.60;;;2.88;;
80576;SDS011;69937;52.420;10.538;2024-02-21T15:51:26;5.47;;;2.58;;
80576;SDS011;69937;52.420;10.538;2024-02-21T15:56:27;6.13;;;2.78;;
80576;SDS011;69937;52.420;10.538;2024-02-21T16:01:27;7.43;;;3.17;;
80576;SDS011;69937;52.420;10.538;2024-02-21T16:06:33;6.93;;;3.25;;
80576;SDS011;69937;52.420;10.538;2024-02-21T16:11:34;5.95;;;3.70;;
80576;SDS011;69937;52.420;10.538;2024-02-21T16:16:35;6.53;;;3.92;;
80576;SDS011;69937;52.420;10.538;2024-02-21T16:21:36;5.65;;;3.88;;
80576;SDS011;69937;52.420;10.538;2024-02-21T16:26:37;5.07;;;2.90;;
80576;SDS011;69937;52.420;10.538;2024-02-21T16:31:38;6.65;;;3.85;;
80576;SDS011;69937;52.420;10.538;2024-02-21T16:36:38;5.22;;;3.60;;
80576;SDS011;69937;52.420;10.538;2024-02-21T16:41:39;7.50;;;4.30;;
80576;SDS011;69937;52.420;10.538;2024-02-21T16:46:39;6.40;;;3.78;;
80576;SDS011;69937;52.420;10.538;2024-02-21T16:51:40;4.68;;;3.55;;
80576;SDS011;69937;52.420;10.538;2024-02-21T16:56:41;9.48;;;4.05;;
80576;SDS011;69937;52.420;10.538;2024-02-21T17:01:41;7.85;;;4.28;;
80576;SDS011;69937;52.420;10.538;2024-02-21T17:06:43;15.60;;;7.00;;
80576;SDS011;69937;52.420;10.538;2024-02-21T17:11:44;20.45;;;8.23;;
80576;SDS011;69937;52.420;10.538;2024-02-21T17:16:45;16.08;;;7.32;;
80576;SDS011;69937;52.420;10.538;2024-02-21T17:21:45;12.40;;;4.25;;
80576;SDS011;69937;52.420;10.538;2024-02-21T17:26:46;5.18;;;3.88;;
80576;SDS011;69937;52.420;10.538;2024-02-21T17:31:46;5.95;;;4.30;;
80576;SDS011;69937;52.420;10.538;2024-02-21T17:36:47;5.53;;;3.80;;
80576;SDS011;69937;52.420;10.538;2024-02-21T17:41:48;10.68;;;3.20;;
80576;SDS011;69937;52.420;10.538;2024-02-21T17:46:52;7.30;;;3.28;;
80576;SDS011;69937;52.420;10.538;2024-02-21T17:51:53;8.13;;;3.75;;
80576;SDS011;69937;52.420;10.538;2024-02-21T17:56:54;7.75;;;3.72;;
80576;SDS011;69937;52.420;10.538;2024-02-21T18:01:54;6.15;;;3.95;;
80576;SDS011;69937;52.420;10.538;2024-02-21T18:06:55;8.95;;;3.85;;
80576;SDS011;69937;52.420;10.538;2024-02-21T18:11:56;6.53;;;3.33;;
80576;SDS011;69937;52.420;10.538;2024-02-21T18:16:58;9.38;;;4.88;;
80576;SDS011;69937;52.420;10.538;2024-02-21T18:21:58;12.43;;;3.97;;
80576;SDS011;69937;52.420;10.538;2024-02-21T18:26:59;4.20;;;3.42;;
80576;SDS011;69937;52.420;10.538;2024-02-21T18:32:00;6.72;;;3.67;;
80576;SDS011;69937;52.420;10.538;2024-02-21T18:37:00;6.55;;;3.20;;
80576;SDS011;69937;52.420;10.538;2024-02-21T18:42:02;8.93;;;4.20;;
80576;SDS011;69937;52.420;10.538;2024-02-21T18:47:02;8.52;;;3.88;;
80576;SDS011;69937;52.420;10.538;2024-02-21T18:52:03;6.50;;;4.03;;
80576;SDS011;69937;52.420;10.538;2024-02-21T18:57:04;7.68;;;5.57;;
80576;SDS011;69937;52.420;10.538;2024-02-21T19:02:05;5.43;;;4.03;;
80576;SDS011;69937;52.420;10.538;2024-02-21T19:07:05;11.65;;;6.15;;
80576;SDS011;69937;52.420;10.538;2024-02-21T19:12:06;13.20;;;5.35;;
80576;SDS011;69937;52.420;10.538;2024-02-21T19:17:07;10.45;;;4.72;;
80576;SDS011;69937;52.420;10.538;2024-02-21T19:22:08;6.35;;;4.30;;
80576;SDS011;69937;52.420;10.538;2024-02-21T19:27:08;6.90;;;4.00;;
80576;SDS011;69937;52.420;10.538;2024-02-21T19:32:09;4.72;;;3.08;;
80576;SDS011;69937;52.420;10.538;2024-02-21T19:37:09;10.48;;;3.33;;
80576;SDS011;69937;52.420;10.538;2024-02-21T19:42:10;4.70;;;2.38;;
80576;SDS011;69937;52.420;10.538;2024-02-21T19:47:10;7.85;;;3.42;;
80576;SDS011;69937;52.420;10.538;2024-02-21T19:52:12;6.25;;;3.35;;
80576;SDS011;69937;52.420;10.538;2024-02-21T19:57:13;8.15;;;3.45;;
80576;SDS011;69937;52.420;10.538;2024-02-21T20:02:14;5.03;;;3.50;;
80576;SDS011;69937;52.420;10.538;2024-02-21T20:07:14;11.35;;;3.15;;
80576;SDS011;69937;52.420;10.538;2024-02-21T20:12:15;6.57;;;3.67;;
80576;SDS011;69937;52.420;10.538;2024-02-21T20:17:17;6.97;;;5.13;;
80576;SDS011;69937;52.420;10.538;2024-02-21T20:22:17;6.55;;;3.78;;
80576;SDS011;69937;52.420;10.538;2024-02-21T20:27:18;5.03;;;3.97;;
80576;SDS011;69937;52.420;10.538;2024-02-21T20:32:19;4.15;;;3.35;;
80576;SDS011;69937;52.420;10.538;2024-02-21T20:37:19;5.00;;;3.13;;
80576;SDS011;69937;52.420;10.538;2024-02-21T20:42:20;7.85;;;3.55;;
80576;SDS011;69937;52.420;10.538;2024-02-21T20:47:23;5.90;;;3.80;;
80576;SDS011;69937;52.420;10.538;2024-02-21T20:52:25;6.35;;;3.20;;
80576;SDS011;69937;52.420;10.538;2024-02-21T20:57:26;4.50;;;2.72;;
80576;SDS011;69937;52.420;10.538;2024-02-21T21:02:27;6.10;;;3.05;;
80576;SDS011;69937;52.420;10.538;2024-02-21T21:07:27;3.90;;;2.10;;
80576;SDS011;69937;52.420;10.538;2024-02-21T21:12:28;5.85;;;2.88;;
80576;SDS011;69937;52.420;10.538;2024-02-21T21:17:29;4.40;;;2.97;;
80576;SDS011;69937;52.420;10.538;2024-02-21T21:22:30;5.15;;;3.42;;
80576;SDS011;69937;52.420;10.538;2024-02-21T21:27:31;5.45;;;2.65;;
80576;SDS011;69937;52.420;10.538;2024-02-21T21:32:31;3.20;;;2.80;;
80576;SDS011;69937;52.420;10.538;2024-02-21T21:37:32;4.57;;;3.33;;
80576;SDS011;69937;52.420;10.538;2024-02-21T21:42:33;3.70;;;3.30;;
80576;SDS011;69937;52.420;10.538;2024-02-21T21:47:34;4.32;;;3.00;;
80576;SDS011;69937;52.420;10.538;2024-02-21T21:52:35;3.53;;;2.60;;
80576;SDS011;69937;52.420;10.538;2024-02-21T21:57:38;6.28;;;2.63;;
80576;SDS011;69937;52.420;10.538;2024-02-21T22:02:39;3.35;;;3.10;;
80576;SDS011;69937;52.420;10.538;2024-02-21T22:07:39;4.07;;;3.25;;
80576;SDS011;69937;52.420;10.538;2024-02-21T22:12:40;5.97;;;3.45;;
80576;SDS011;69937;52.420;10.538;2024-02-21T22:17:41;10.73;;;5.15;;
80576;SDS011;69937;52.420;10.538;2024-02-21T22:22:41;4.40;;;3.13;;
80576;SDS011;69937;52.420;10.538;2024-02-21T22:27:42;4.13;;;3.00;;
80576;SDS011;69937;52.420;10.538;2024-02-21T22:32:42;4.30;;;3.28;;
80576;SDS011;69937;52.420;10.538;2024-02-21T22:37:43;4.30;;;3.28;;
80576;SDS011;69937;52.420;10.538;2024-02-21T22:42:44;4.00;;;3.60;;
80576;SDS011;69937;52.420;10.538;2024-02-21T22:47:45;5.03;;;3.33;;
80576;SDS011;69937;52.420;10.538;2024-02-21T22:52:47;3.58;;;3.33;;
80576;SDS011;69937;52.420;10.538;2024-02-21T22:57:47;3.47;;;3.15;;
80576;SDS011;69937;52.420;10.538;2024-02-21T23:02:48;3.53;;;3.22;;
80576;SDS011;69937;52.420;10.538;2024-02-21T23:07:49;3.35;;;3.10;;
80576;SDS011;69937;52.420;10.538;2024-02-21T23:12:52;3.15;;;2.95;;
80576;SDS011;69937;52.420;10.538;2024-02-21T23:17:52;2.72;;;2.53;;
80576;SDS011;69937;52.420;10.538;2024-02-21T23:22:53;2.42;;;2.22;;
80576;SDS011;69937;52.420;10.538;2024-02-21T23:27:53;2.95;;;2.50;;
80576;SDS011;69937;52.420;10.538;2024-02-21T23:32:54;3.20;;;2.65;;
80576;SDS011;69937;52.420;10.538;2024-02-21T23:37:55;3.53;;;3.22;;
80576;SDS011;69937;52.420;10.538;2024-02-21T23:42:55;2.95;;;2.67;;
80576;SDS011;69937;52.420;10.538;2024-02-21T23:47:56;8.18;;;3.17;;
80576;SDS011;69937;52.420;10.538;2024-02-21T23:52:56;3.60;;;3.30;;
80576;SDS011;69937;52.420;10.538;2024-02-21T23:57:57;3.88;;;3.28;;
